createdAt,value
2018-06-02T00:02:16.101Z,96.80
2018-06-02T00:04:42.993Z,96.90
2018-06-02T00:07:09.887Z,96.80
2018-06-02T00:09:36.790Z,97.00
2018-06-02T00:12:03.692Z,96.80
2018-06-02T00:14:30.594Z,97.10
2018-06-02T00:16:57.529Z,97.40
2018-06-02T00:19:24.424Z,97.00
2018-06-02T00:21:51.345Z,97.00
2018-06-02T00:24:18.241Z,96.90
2018-06-02T00:26:45.873Z,97.00
2018-06-02T00:29:12.777Z,97.00
2018-06-02T00:31:39.677Z,96.80
2018-06-02T00:34:06.666Z,97.00
2018-06-02T00:36:33.589Z,97.50
2018-06-02T00:39:00.477Z,97.60
2018-06-02T00:41:27.364Z,97.70
2018-06-02T00:43:55.001Z,97.30
2018-06-02T00:46:21.946Z,97.30
2018-06-02T00:48:48.857Z,97.30
2018-06-02T00:51:15.772Z,97.90
2018-06-02T00:53:42.673Z,97.50
2018-06-02T00:56:09.585Z,97.90
2018-06-02T00:58:36.525Z,98.00
2018-06-02T01:01:03.459Z,98.00
2018-06-02T01:03:30.360Z,98.10
2018-06-02T01:05:57.241Z,98.30
2018-06-02T01:08:24.152Z,98.20
2018-06-02T01:10:51.083Z,98.30
2018-06-02T01:13:17.990Z,98.10
2018-06-02T01:15:44.897Z,97.90
2018-06-02T01:18:12.548Z,97.60
2018-06-02T01:20:39.467Z,97.60
2018-06-02T01:23:06.368Z,97.10
2018-06-02T01:25:33.329Z,97.20
2018-06-02T01:28:00.229Z,97.30
2018-06-02T01:30:27.108Z,97.30
2018-06-02T01:32:54.022Z,97.50
2018-06-02T01:35:20.961Z,97.60
2018-06-02T01:37:47.892Z,97.70
2018-06-02T01:40:14.785Z,97.80
2018-06-02T01:42:41.688Z,97.90
2018-06-02T01:45:08.588Z,98.30
2018-06-02T01:47:35.489Z,98.30
2018-06-02T01:50:03.207Z,98.10
2018-06-02T01:52:30.091Z,98.10
2018-06-02T01:54:57.736Z,98.30
2018-06-02T01:57:24.631Z,98.30
2018-06-02T01:59:51.525Z,98.10
2018-06-02T02:02:18.422Z,98.10
2018-06-02T02:04:45.312Z,98.40
2018-06-02T02:07:12.249Z,98.20
2018-06-02T02:09:39.146Z,98.10
2018-06-02T02:12:06.041Z,97.90
2018-06-02T02:14:32.940Z,98.10
2018-06-02T02:16:59.828Z,98.00
2018-06-02T02:19:26.718Z,97.50
2018-06-02T02:21:53.626Z,97.90
2018-06-02T02:24:20.529Z,97.80
2018-06-02T02:26:47.462Z,98.00
2018-06-02T02:29:14.362Z,98.00
2018-06-02T02:31:41.263Z,98.30
2018-06-02T02:34:08.149Z,98.30
2018-06-02T02:36:35.099Z,98.20
2018-06-02T02:39:02.950Z,98.20
2018-06-02T02:41:29.854Z,98.20
2018-06-02T02:43:56.757Z,98.20
2018-06-02T02:46:23.675Z,98.50
2018-06-02T02:48:50.588Z,98.60
2018-06-02T02:51:17.485Z,98.50
2018-06-02T02:53:44.425Z,98.40
2018-06-02T02:56:11.325Z,98.50
2018-06-02T02:58:38.227Z,98.30
2018-06-02T03:01:05.857Z,98.20
2018-06-02T03:03:32.789Z,98.20
2018-06-02T03:05:59.688Z,98.00
2018-06-02T03:08:26.585Z,97.90
2018-06-02T03:10:53.488Z,98.10
2018-06-02T03:13:20.397Z,98.10
2018-06-02T03:15:47.297Z,98.20
2018-06-02T03:18:14.192Z,98.30
2018-06-02T03:20:41.842Z,98.60
2018-06-02T03:23:08.773Z,98.50
2018-06-02T03:25:35.674Z,98.60
2018-06-02T03:28:02.581Z,98.50
2018-06-02T03:30:29.485Z,98.60
2018-06-02T03:32:56.384Z,99.00
2018-06-02T03:35:23.293Z,99.10
2018-06-02T03:37:50.303Z,99.10
2018-06-02T03:40:17.227Z,99.00
2018-06-02T03:42:44.129Z,99.10
2018-06-02T03:45:11.028Z,98.90
2018-06-02T03:47:37.965Z,99.40
2018-06-02T03:50:04.874Z,99.50
2018-06-02T03:52:31.775Z,99.50
2018-06-02T03:54:58.681Z,99.50
2018-06-02T03:57:26.321Z,99.00
2018-06-02T03:59:53.212Z,99.00
2018-06-02T04:02:20.269Z,98.30
2018-06-02T04:04:47.176Z,98.50
2018-06-02T04:07:14.132Z,98.70
2018-06-02T04:09:41.028Z,98.90
2018-06-02T04:12:07.928Z,99.60
2018-06-02T04:14:34.895Z,99.50
2018-06-02T04:17:01.788Z,99.30
2018-06-02T04:19:29.649Z,98.90
2018-06-02T04:21:56.536Z,98.90
2018-06-02T04:24:23.444Z,99.10
2018-06-02T04:26:51.100Z,99.60
2018-06-02T04:29:18.001Z,99.60
2018-06-02T04:31:45.077Z,99.50
2018-06-02T04:34:12.816Z,99.70
2018-06-02T04:36:39.717Z,99.70
2018-06-02T04:39:06.662Z,99.60
2018-06-02T04:41:33.668Z,99.70
2018-06-02T04:44:00.535Z,99.80
2018-06-02T04:46:28.201Z,99.90
2018-06-02T04:48:55.860Z,99.90
2018-06-02T04:51:22.769Z,99.90
2018-06-02T04:53:49.684Z,99.90
2018-06-02T04:56:16.592Z,99.90
2018-06-02T04:58:43.524Z,99.90
2018-06-02T05:01:10.444Z,99.90
2018-06-02T05:03:37.396Z,99.90
2018-06-02T05:06:04.353Z,99.90
2018-06-02T05:08:31.259Z,99.90
2018-06-02T05:10:58.201Z,99.90
2018-06-02T05:13:25.112Z,99.90
2018-06-02T05:15:52.780Z,99.90
2018-06-02T05:18:20.433Z,99.90
2018-06-02T05:20:47.352Z,99.90
2018-06-02T05:23:14.241Z,99.90
2018-06-02T05:25:41.145Z,99.90
2018-06-02T05:28:08.052Z,99.90
2018-06-02T05:30:34.944Z,99.90
2018-06-02T05:33:02.613Z,99.90
2018-06-02T05:35:30.248Z,99.90
2018-06-02T05:37:57.148Z,99.90
2018-06-02T05:40:24.082Z,99.90
2018-06-02T05:42:51.017Z,99.90
2018-06-02T05:45:17.944Z,99.90
2018-06-02T05:47:45.594Z,99.90
2018-06-02T05:50:12.503Z,99.90
2018-06-02T05:52:39.414Z,99.90
2018-06-02T05:55:06.369Z,99.90
2018-06-02T05:57:33.271Z,99.90
2018-06-02T06:00:00.186Z,99.90
2018-06-02T06:02:27.112Z,99.90
2018-06-02T06:04:54.009Z,99.90
2018-06-02T06:07:21.677Z,99.90
2018-06-02T06:09:49.338Z,99.90
2018-06-02T06:12:16.259Z,99.90
2018-06-02T06:14:43.227Z,99.40
2018-06-02T06:17:10.144Z,98.30
2018-06-02T06:19:37.077Z,98.10
2018-06-02T06:22:04.049Z,97.40
2018-06-02T06:24:30.965Z,97.30
2018-06-02T06:26:57.917Z,96.00
2018-06-02T06:29:24.825Z,95.40
2018-06-02T06:31:51.724Z,94.80
2018-06-02T06:34:18.636Z,94.30
2018-06-02T06:36:45.553Z,94.10
2018-06-02T06:39:12.453Z,94.50
2018-06-02T06:41:39.409Z,94.20
2018-06-02T06:44:06.324Z,93.60
2018-06-02T06:46:33.287Z,93.30
2018-06-02T06:49:00.212Z,93.10
2018-06-02T06:51:27.117Z,93.40
2018-06-02T06:53:54.056Z,93.20
2018-06-02T06:56:21.700Z,92.90
2018-06-02T06:58:48.609Z,92.90
2018-06-02T07:01:15.521Z,92.90
2018-06-02T07:03:42.428Z,92.60
2018-06-02T07:06:09.349Z,92.40
2018-06-02T07:08:36.233Z,93.20
2018-06-02T07:11:03.876Z,92.90
2018-06-02T07:13:30.773Z,92.90
2018-06-02T07:15:57.682Z,93.60
2018-06-02T07:18:24.571Z,92.70
2018-06-02T07:20:51.483Z,91.50
2018-06-02T07:23:20.041Z,91.50
2018-06-02T07:25:47.678Z,92.40
2018-06-02T07:28:14.580Z,92.40
2018-06-02T07:30:41.557Z,92.40
2018-06-02T07:33:08.438Z,92.50
2018-06-02T07:35:35.356Z,92.80
2018-06-02T07:38:02.241Z,91.90
2018-06-02T07:40:30.201Z,92.80
2018-06-02T07:42:58.728Z,92.80
2018-06-02T07:45:25.708Z,93.10
2018-06-02T07:47:54.010Z,91.80
2018-06-02T07:50:20.945Z,90.20
2018-06-02T07:52:50.194Z,90.40
2018-06-02T07:55:17.108Z,89.90
2018-06-02T07:57:44.066Z,88.50
2018-06-02T08:00:11.023Z,87.30
2018-06-02T08:02:37.935Z,83.50
2018-06-02T08:05:04.837Z,82.80
2018-06-02T08:07:33.345Z,76.40
2018-06-02T08:10:00.641Z,77.50
2018-06-02T08:12:27.908Z,76.40
2018-06-02T08:14:54.861Z,76.60
2018-06-02T08:17:21.808Z,76.10
2018-06-02T08:19:48.708Z,74.90
2018-06-02T08:22:15.642Z,70.40
2018-06-02T08:24:43.272Z,70.20
2018-06-02T08:27:10.160Z,70.20
2018-06-02T08:29:37.052Z,68.50
2018-06-02T08:32:03.951Z,67.70
2018-06-02T08:34:30.920Z,68.70
2018-06-02T08:36:58.000Z,67.40
2018-06-02T08:39:24.902Z,65.90
2018-06-02T08:41:51.816Z,65.20
2018-06-02T08:44:19.567Z,65.70
2018-06-02T08:46:47.201Z,65.40
2018-06-02T08:49:14.120Z,65.10
2018-06-02T08:51:41.018Z,67.90
2018-06-02T08:54:12.197Z,68.30
2018-06-02T08:56:39.096Z,68.10
2018-06-02T08:59:08.421Z,67.70
2018-06-02T09:01:35.798Z,69.00
2018-06-02T09:04:02.708Z,67.40
2018-06-02T09:06:30.952Z,66.40
2018-06-02T09:08:57.864Z,66.40
2018-06-02T09:11:24.769Z,68.10
2018-06-02T09:13:52.472Z,66.70
2018-06-02T09:16:19.456Z,66.50
2018-06-02T09:18:46.424Z,66.80
2018-06-02T09:21:14.833Z,65.60
2018-06-02T09:23:41.809Z,65.50
2018-06-02T09:26:08.700Z,64.40
2018-06-02T09:28:35.613Z,64.90
2018-06-02T09:31:02.536Z,63.30
2018-06-02T09:33:29.444Z,62.10
2018-06-02T09:35:56.352Z,60.30
2018-06-02T09:38:23.237Z,59.70
2018-06-02T09:40:50.224Z,59.40
2018-06-02T09:43:17.117Z,59.40
2018-06-02T09:45:44.006Z,59.10
2018-06-02T09:48:10.901Z,59.00
2018-06-02T09:50:37.797Z,59.10
2018-06-02T09:53:04.693Z,58.10
2018-06-02T09:55:31.594Z,58.10
2018-06-02T09:57:58.489Z,57.90
2018-06-02T10:00:25.448Z,56.40
2018-06-02T10:02:52.332Z,55.80
2018-06-02T10:05:19.265Z,56.20
2018-06-02T10:07:46.148Z,56.80
2018-06-02T10:10:13.036Z,56.20
2018-06-02T10:12:39.924Z,56.50
2018-06-02T10:15:06.828Z,55.70
2018-06-02T10:17:33.718Z,54.10
2018-06-02T10:20:01.345Z,55.10
2018-06-02T10:22:28.287Z,55.00
2018-06-02T10:24:56.196Z,54.40
2018-06-02T10:27:23.801Z,55.20
2018-06-02T10:29:52.397Z,57.10
2018-06-02T10:32:19.288Z,56.90
2018-06-02T10:34:46.168Z,57.20
2018-06-02T10:37:13.947Z,58.30
2018-06-02T10:39:41.928Z,56.10
2018-06-02T10:42:09.401Z,56.00
2018-06-02T10:44:36.286Z,55.90
2018-06-02T10:47:03.175Z,56.10
2018-06-02T10:49:30.068Z,56.50
2018-06-02T10:51:56.960Z,55.60
2018-06-02T10:54:23.845Z,54.80
2018-06-02T10:56:50.765Z,54.70
2018-06-02T10:59:18.468Z,54.40
2018-06-02T11:01:46.373Z,52.50
2018-06-02T11:04:13.309Z,52.70
2018-06-02T11:06:40.188Z,52.60
2018-06-02T11:09:09.253Z,53.40
2018-06-02T11:11:36.199Z,53.40
2018-06-02T11:14:03.096Z,53.20
2018-06-02T11:16:29.982Z,52.90
2018-06-02T11:18:56.869Z,52.10
2018-06-02T11:21:24.929Z,52.60
2018-06-02T11:24:04.304Z,53.80
2018-06-02T11:26:32.180Z,55.00
2018-06-02T11:29:03.290Z,55.30
2018-06-02T11:31:31.431Z,54.00
2018-06-02T11:34:00.843Z,54.00
2018-06-02T11:36:27.785Z,53.40
2018-06-02T11:38:54.680Z,55.00
2018-06-02T11:41:24.870Z,54.40
2018-06-02T11:43:56.688Z,54.10
2018-06-02T11:46:23.612Z,54.20
2018-06-02T11:48:55.492Z,54.10
2018-06-02T11:51:29.463Z,52.80
2018-06-02T11:53:59.109Z,52.80
2018-06-02T11:59:33.966Z,53.80
2018-06-02T12:02:02.656Z,53.60
2018-06-02T12:04:31.061Z,54.00
2018-06-02T12:07:04.420Z,53.90
2018-06-02T12:09:35.696Z,54.40
2018-06-02T12:12:08.828Z,54.30
2018-06-02T12:14:39.829Z,54.50
2018-06-02T12:17:21.320Z,54.90
2018-06-02T12:19:49.972Z,55.50
2018-06-02T12:22:17.959Z,54.70
2018-06-02T12:24:45.220Z,54.70
2018-06-02T12:27:13.883Z,55.10
2018-06-02T12:29:40.780Z,55.10
2018-06-02T12:32:22.659Z,54.90
2018-06-02T12:34:51.154Z,54.70
2018-06-02T12:37:25.009Z,53.60
2018-06-02T12:39:53.417Z,54.50
2018-06-02T12:42:23.685Z,53.60
2018-06-02T12:44:51.426Z,53.60
2018-06-02T12:47:24.055Z,53.60
2018-06-02T12:50:02.581Z,53.20
2018-06-02T12:52:31.828Z,52.90
2018-06-02T12:55:04.305Z,52.10
2018-06-02T12:57:37.323Z,52.00
2018-06-02T13:00:14.453Z,50.80
2018-06-02T13:02:43.872Z,49.00
2018-06-02T13:05:20.827Z,48.80
2018-06-02T13:07:47.910Z,50.10
2018-06-02T13:10:14.938Z,50.90
2018-06-02T13:12:41.868Z,51.80
2018-06-02T13:15:11.057Z,52.20
2018-06-02T13:17:38.731Z,52.20
2018-06-02T13:20:08.025Z,54.20
2018-06-02T13:22:37.534Z,54.20
2018-06-02T13:25:09.289Z,53.40
2018-06-02T13:27:40.184Z,56.50
2018-06-02T13:30:13.241Z,56.40
2018-06-02T13:32:53.416Z,58.40
2018-06-02T13:37:58.170Z,59.10
2018-06-02T13:40:25.162Z,59.80
2018-06-02T13:42:52.904Z,60.30
2018-06-02T13:45:19.780Z,60.30
2018-06-02T13:47:46.677Z,58.80
2018-06-02T13:50:13.581Z,58.90
2018-06-02T13:52:40.500Z,59.50
2018-06-02T13:55:08.538Z,58.70
2018-06-02T13:57:35.468Z,58.60
2018-06-02T14:00:03.664Z,59.20
2018-06-02T14:02:30.552Z,59.20
2018-06-02T14:04:57.447Z,57.10
2018-06-02T14:07:24.380Z,57.90
2018-06-02T14:09:51.280Z,57.10
2018-06-02T14:12:18.165Z,56.90
2018-06-02T14:14:45.812Z,57.80
2018-06-02T14:17:12.692Z,58.50
2018-06-02T14:19:39.583Z,58.20
2018-06-02T14:22:06.476Z,57.90
2018-06-02T14:24:33.376Z,59.50
2018-06-02T14:27:00.300Z,59.10
2018-06-02T14:29:27.232Z,59.60
2018-06-02T14:31:54.128Z,61.60
2018-06-02T14:34:21.017Z,60.10
2018-06-02T14:36:47.896Z,59.90
2018-06-02T14:39:14.813Z,58.40
2018-06-02T14:41:42.453Z,59.20
2018-06-02T14:44:09.348Z,59.20
2018-06-02T14:46:36.240Z,60.40
2018-06-02T14:49:03.189Z,60.10
2018-06-02T14:51:30.106Z,61.30
2018-06-02T14:53:57.017Z,63.30
2018-06-02T14:56:23.904Z,62.40
2018-06-02T14:58:51.677Z,62.60
2018-06-02T15:01:19.289Z,62.20
2018-06-02T15:03:46.610Z,61.10
2018-06-02T15:06:14.316Z,63.00
2018-06-02T15:08:41.281Z,62.30
2018-06-02T15:11:08.209Z,63.10
2018-06-02T15:13:36.295Z,64.50
2018-06-02T15:16:03.454Z,65.10
2018-06-02T15:18:30.511Z,65.10
2018-06-02T15:20:57.460Z,64.50
2018-06-02T15:23:24.367Z,65.00
2018-06-02T15:25:51.313Z,64.30
2018-06-02T15:28:18.203Z,64.40
2018-06-02T15:30:45.944Z,64.60
2018-06-02T15:33:13.941Z,65.50
2018-06-02T15:35:41.600Z,64.10
2018-06-02T15:41:47.476Z,64.40
2018-06-02T15:44:16.109Z,64.00
2018-06-02T15:46:44.732Z,64.90
2018-06-02T15:49:13.352Z,65.30
2018-06-02T15:51:42.000Z,65.90
2018-06-02T15:54:10.609Z,65.60
2018-06-02T15:56:39.213Z,67.00
2018-06-02T15:59:07.863Z,68.40
2018-06-02T16:01:36.540Z,69.30
2018-06-02T16:04:05.180Z,68.70
2018-06-02T16:06:33.825Z,68.40
2018-06-02T16:11:30.705Z,69.10
2018-06-02T16:13:59.340Z,69.50
2018-06-02T16:16:27.952Z,69.60
2018-06-02T16:18:56.577Z,69.60
2018-06-02T16:21:25.214Z,69.90
2018-06-02T16:23:53.853Z,70.10
2018-06-02T16:26:22.453Z,71.30
2018-06-02T16:28:51.069Z,72.00
2018-06-02T16:33:47.938Z,72.50
2018-06-02T16:36:29.211Z,73.60
2018-06-02T16:38:57.973Z,74.30
2018-06-02T16:41:26.654Z,75.20
2018-06-02T16:43:55.757Z,73.80
2018-06-02T16:46:24.711Z,72.60
2018-06-02T16:48:53.340Z,72.40
2018-06-02T16:51:21.937Z,72.10
2018-06-02T16:53:50.604Z,72.90
2018-06-02T16:56:19.204Z,74.10
2018-06-02T16:58:47.836Z,73.20
2018-06-02T17:01:16.438Z,74.30
2018-06-02T17:03:45.037Z,74.10
2018-06-02T17:06:13.655Z,73.60
2018-06-02T17:08:42.472Z,73.50
2018-06-02T17:11:11.144Z,74.20
2018-06-02T17:13:40.463Z,74.90
2018-06-02T17:16:09.192Z,74.60
2018-06-02T17:18:37.863Z,74.50
2018-06-02T17:21:07.537Z,74.50
2018-06-02T17:23:36.132Z,74.70
2018-06-02T17:26:05.258Z,75.20
2018-06-02T17:28:35.285Z,76.00
2018-06-02T17:31:03.995Z,75.60
2018-06-02T17:33:33.749Z,75.40
2018-06-02T17:36:03.116Z,75.70
2018-06-02T17:38:31.888Z,75.80
2018-06-02T17:41:02.250Z,76.10
2018-06-02T17:43:30.983Z,76.40
2018-06-02T17:45:59.724Z,77.10
2018-06-02T17:48:28.369Z,75.90
2018-06-02T17:53:25.246Z,76.70
2018-06-02T17:55:54.144Z,77.10
2018-06-02T17:58:22.753Z,76.90
2018-06-02T18:00:51.898Z,77.30
2018-06-02T18:03:20.528Z,77.80
2018-06-02T18:05:49.156Z,77.00
2018-06-02T18:08:17.773Z,77.30
2018-06-02T18:10:46.388Z,78.50
2018-06-02T18:13:15.088Z,78.50
2018-06-02T18:15:43.770Z,78.50
2018-06-02T18:18:12.437Z,78.10
2018-06-02T18:20:41.088Z,79.30
2018-06-02T18:23:09.689Z,78.30
2018-06-02T18:25:38.289Z,78.20
2018-06-02T18:28:06.926Z,78.60
2018-06-02T18:30:35.559Z,78.30
2018-06-02T18:39:35.220Z,78.60
2018-06-02T18:44:32.449Z,81.60
2018-06-02T18:47:01.181Z,82.50
2018-06-02T18:49:29.819Z,83.40
2018-06-02T18:51:58.420Z,84.00
2018-06-02T18:54:27.113Z,84.10
2018-06-02T18:56:55.737Z,85.00
2018-06-02T18:59:24.332Z,85.10
2018-06-02T19:01:52.960Z,86.00
2018-06-02T19:04:21.572Z,87.00
2018-06-02T19:06:50.168Z,87.50
2018-06-02T19:09:18.776Z,87.90
2018-06-02T19:11:47.389Z,88.60
2018-06-02T19:14:15.975Z,88.90
2018-06-02T19:16:44.620Z,89.60
2018-06-02T19:19:13.216Z,89.90
2018-06-02T19:21:41.842Z,90.00
2018-06-02T19:24:10.545Z,89.90
2018-06-02T19:26:39.143Z,90.10
2018-06-02T19:29:07.873Z,90.20
2018-06-02T19:31:36.513Z,90.20
2018-06-02T19:34:05.146Z,90.50
2018-06-02T19:36:33.784Z,91.10
2018-06-02T19:39:02.527Z,91.60
2018-06-02T19:41:31.141Z,91.40
2018-06-02T19:43:59.782Z,91.60
2018-06-02T19:46:28.387Z,91.90
2018-06-02T19:48:57.541Z,92.20
2018-06-02T19:51:26.349Z,92.50
2018-06-02T19:53:54.996Z,92.70
2018-06-02T19:56:23.672Z,93.10
2018-06-02T19:58:52.353Z,93.30
2018-06-02T20:01:21.099Z,93.40
2018-06-02T20:03:49.897Z,93.20
2018-06-02T20:06:18.828Z,93.10
2018-06-02T20:08:47.504Z,93.50
2018-06-02T20:11:16.724Z,93.60
2018-06-02T20:13:45.348Z,94.10
2018-06-02T20:16:13.970Z,94.50
2018-06-02T20:18:42.597Z,94.40
2018-06-02T20:23:39.827Z,94.60
2018-06-02T20:26:08.447Z,94.60
2018-06-02T20:28:37.099Z,94.50
2018-06-02T20:31:05.757Z,94.80
2018-06-02T20:33:34.613Z,94.70
2018-06-02T20:36:03.260Z,94.40
2018-06-02T20:38:33.358Z,94.50
2018-06-02T20:41:02.568Z,94.60
2018-06-02T20:43:31.228Z,94.60
2018-06-02T20:45:59.919Z,94.30
2018-06-02T20:48:28.708Z,94.40
2018-06-02T20:50:57.519Z,94.90
2018-06-02T20:53:26.350Z,95.10
2018-06-02T20:55:55.292Z,95.50
2018-06-02T20:58:24.012Z,95.50
2018-06-02T21:00:52.673Z,95.70
2018-06-02T21:03:21.353Z,95.70
2018-06-02T21:05:50.019Z,95.40
2018-06-02T21:08:18.700Z,95.20
2018-06-02T21:10:47.430Z,95.30
2018-06-02T21:13:16.480Z,95.60
2018-06-02T21:15:45.653Z,95.60
2018-06-02T21:18:14.324Z,95.70
2018-06-02T21:20:43.025Z,96.30
2018-06-02T21:23:11.652Z,96.60
2018-06-02T21:25:40.342Z,96.60
2018-06-02T21:28:08.969Z,96.60
2018-06-02T21:30:37.618Z,96.80
2018-06-02T21:33:06.321Z,96.80
2018-06-02T21:35:35.040Z,96.80
2018-06-02T21:38:03.705Z,96.90
2018-06-02T21:40:32.724Z,97.00
2018-06-02T21:43:01.391Z,96.90
2018-06-02T21:45:30.356Z,96.70
2018-06-02T21:47:59.988Z,96.80
2018-06-02T21:50:28.649Z,96.60
2018-06-02T21:52:57.556Z,96.60
2018-06-02T21:57:55.149Z,97.10
2018-06-02T22:00:24.977Z,97.80
2018-06-02T22:02:53.647Z,97.80
2018-06-02T22:05:22.292Z,97.60
2018-06-02T22:07:51.373Z,97.70
2018-06-02T22:10:20.044Z,97.80
2018-06-02T22:12:48.897Z,97.90
2018-06-02T22:15:17.840Z,98.10
2018-06-02T22:17:46.476Z,98.20
2018-06-02T22:20:15.142Z,98.30
2018-06-02T22:22:43.809Z,98.30
2018-06-02T22:25:12.429Z,98.20
2018-06-02T22:27:41.210Z,97.80
2018-06-02T22:30:09.868Z,97.90
2018-06-02T22:32:38.505Z,98.20
2018-06-02T22:35:07.159Z,98.20
2018-06-02T22:37:35.798Z,98.50
2018-06-02T22:40:04.560Z,98.80
2018-06-02T22:42:33.197Z,98.90
2018-06-02T22:45:01.874Z,99.00
2018-06-02T22:47:30.521Z,98.90
2018-06-02T22:49:59.174Z,98.80
2018-06-02T22:54:56.388Z,98.70
2018-06-02T22:57:25.269Z,98.60
2018-06-02T22:59:54.145Z,98.40
2018-06-02T23:02:23.016Z,98.60
2018-06-02T23:04:52.013Z,98.80
2018-06-02T23:07:20.875Z,98.70
2018-06-02T23:09:49.729Z,98.80
2018-06-02T23:12:18.356Z,98.60
2018-06-02T23:14:47.008Z,98.60
2018-06-02T23:17:15.636Z,98.60
2018-06-02T23:22:48.541Z,97.80
2018-06-02T23:25:17.192Z,97.70
2018-06-02T23:27:45.856Z,97.90
2018-06-02T23:30:14.507Z,98.00
2018-06-02T23:32:43.129Z,98.10
2018-06-02T23:35:11.754Z,98.10
2018-06-02T23:37:40.380Z,98.30
2018-06-02T23:40:09.025Z,98.50
2018-06-02T23:42:37.684Z,98.80
2018-06-02T23:45:06.454Z,99.00
2018-06-02T23:47:35.088Z,99.30
2018-06-02T23:50:03.716Z,99.20
2018-06-02T23:52:32.329Z,99.40
2018-06-02T23:55:01.056Z,99.70
2018-06-02T23:57:29.700Z,99.90
2018-06-02T23:59:58.352Z,99.70
